Time;durP1;ratioP1;P1;durP2;ratioP2;P2;SDS_P1;SDS_P2;PMS_P1;PMS_P2;Temp;Humidity;BMP_temperature;BMP_pressure;BME280_temperature;BME280_humidity;BME280_pressure;Samples;Min_cycle;Max_cycle;Signal;HPM_P1;HPM_P2
2022/06/02 00:02:04;;;;;;;10.10;7.45;;;;;;;11.11;68.81;101860.75;5082298;28;20047;-64
2022/06/02 00:04:47;;;;;;;8.13;7.40;;;;;;;10.99;69.34;101864.03;5083890;28;20038;-64
2022/06/02 00:07:30;;;;;;;8.75;7.13;;;;;;;10.99;69.58;101860.50;5084971;28;20441;-64
2022/06/02 00:10:34;;;;;;;8.13;7.43;;;;;;;10.96;69.40;101855.34;5082354;28;20024;-64
2022/06/02 00:13:22;;;;;;;8.40;7.60;;;;;;;10.94;69.07;101871.38;5072797;28;20046;-64
2022/06/02 00:15:52;;;;;;;9.05;7.38;;;;;;;10.85;69.70;101869.16;5078369;28;20035;-64
2022/06/02 00:18:21;;;;;;;10.10;7.00;;;;;;;10.81;69.58;101864.91;5063164;28;20080;-64
2022/06/02 00:20:57;;;;;;;8.05;7.35;;;;;;;10.71;69.56;101867.16;5080726;28;20105;-64
2022/06/02 00:23:35;;;;;;;11.63;8.13;;;;;;;10.80;69.03;101868.53;5081243;28;20032;-64
2022/06/02 00:26:00;;;;;;;9.95;8.00;;;;;;;10.74;69.65;101867.03;5080275;28;20024;-64
2022/06/02 00:28:53;;;;;;;8.38;7.68;;;;;;;10.71;69.84;101866.28;5079490;28;20517;-64
2022/06/02 00:31:43;;;;;;;9.00;7.88;;;;;;;10.76;69.30;101866.94;5079695;28;20020;-64
2022/06/02 00:34:36;;;;;;;9.15;7.90;;;;;;;10.73;68.92;101875.06;5082250;28;20763;-63
2022/06/02 00:37:16;;;;;;;9.63;8.57;;;;;;;10.61;69.34;101876.50;5079821;28;20055;-63
2022/06/02 00:39:41;;;;;;;10.82;8.27;;;;;;;10.50;69.59;101879.66;5078457;28;20159;-63
2022/06/02 00:42:28;;;;;;;9.32;8.20;;;;;;;10.51;69.82;101878.72;5053802;28;20114;-64
2022/06/02 00:45:01;;;;;;;11.18;8.80;;;;;;;10.37;69.99;101866.06;5078961;28;20024;-64
2022/06/02 00:47:39;;;;;;;16.75;8.32;;;;;;;10.43;70.22;101875.56;5055789;28;20070;-64
2022/06/02 00:50:30;;;;;;;9.55;8.65;;;;;;;10.32;70.15;101872.50;5077732;28;20048;-64
2022/06/02 00:53:17;;;;;;;16.77;8.30;;;;;;;10.44;69.56;101877.25;5064260;28;20511;-63
2022/06/02 00:59:23;;;;;;;8.63;7.85;;;;;;;10.37;69.38;101889.13;5082617;28;20461;-64
2022/06/02 01:01:49;;;;;;;9.02;8.15;;;;;;;10.18;70.38;101879.31;5062445;28;20452;-64
2022/06/02 01:04:17;;;;;;;9.13;8.32;;;;;;;10.21;70.10;101883.63;5061442;28;20035;-63
2022/06/02 01:06:58;;;;;;;10.30;8.13;;;;;;;10.17;70.30;101880.22;5080681;28;20667;-64
2022/06/02 01:09:49;;;;;;;9.32;8.32;;;;;;;10.28;69.92;101878.91;5080630;28;20035;-64
2022/06/02 01:12:20;;;;;;;8.88;8.07;;;;;;;10.06;70.86;101885.16;5085060;28;20046;-63
2022/06/02 01:15:18;;;;;;;8.82;7.90;;;;;;;10.18;70.10;101876.66;5087199;28;22063;-63
2022/06/02 01:18:24;;;;;;;9.35;8.48;;;;;;;10.14;69.56;101879.50;5082186;28;20390;-63
2022/06/02 01:21:19;;;;;;;9.23;8.15;;;;;;;10.10;69.88;101884.09;5076150;28;20036;-63
2022/06/02 01:24:16;;;;;;;9.10;8.20;;;;;;;10.12;69.90;101882.25;5081554;28;20164;-64
2022/06/02 01:27:06;;;;;;;9.18;8.35;;;;;;;9.98;70.12;101879.31;5064652;28;20036;-63
2022/06/02 01:29:48;;;;;;;9.35;8.55;;;;;;;9.97;70.34;101880.22;5074250;28;20024;-64
2022/06/02 01:32:18;;;;;;;11.48;9.35;;;;;;;9.91;70.31;101881.41;5095603;28;20027;-64
2022/06/02 01:35:02;;;;;;;9.75;8.85;;;;;;;9.95;69.94;101879.47;5104847;28;20028;-64
2022/06/02 01:37:41;;;;;;;12.02;9.45;;;;;;;9.88;70.20;101883.28;5082378;28;20032;-63
2022/06/02 01:40:39;;;;;;;10.50;9.40;;;;;;;9.93;69.72;101884.81;5084601;28;20024;-63
2022/06/02 01:43:28;;;;;;;11.13;9.73;;;;;;;9.84;69.99;101881.72;5060916;28;20372;-63
2022/06/02 01:46:14;;;;;;;12.70;9.88;;;;;;;9.85;69.82;101888.75;5083782;28;20020;-63
2022/06/02 01:48:54;;;;;;;10.90;9.77;;;;;;;9.65;70.50;101889.63;5083704;28;20093;-63
2022/06/02 01:51:44;;;;;;;10.38;9.27;;;;;;;9.71;70.10;101881.38;5084991;28;20062;-63
2022/06/02 01:54:36;;;;;;;11.37;10.27;;;;;;;9.63;70.41;101880.84;5084187;28;20031;-63
2022/06/02 01:57:20;;;;;;;9.93;8.90;;;;;;;9.63;70.12;101889.66;5082967;28;20304;-64
2022/06/02 01:59:55;;;;;;;11.07;9.98;;;;;;;9.42;70.31;101862.22;5081851;28;20032;-63
2022/06/02 02:02:26;;;;;;;10.55;9.55;;;;;;;9.46;70.88;101892.16;5108717;28;20034;-63
2022/06/02 02:05:18;;;;;;;11.57;9.38;;;;;;;9.53;70.60;101891.88;5094942;28;20168;-63
2022/06/02 02:08:17;;;;;;;12.63;10.32;;;;;;;9.48;70.64;101896.50;5061084;28;20114;-63
2022/06/02 02:11:00;;;;;;;13.13;11.73;;;;;;;9.38;71.47;101886.31;5088686;28;20038;-63
2022/06/02 02:13:44;;;;;;;14.18;12.77;;;;;;;9.36;71.37;101893.50;5086044;28;20032;-63
2022/06/02 02:16:18;;;;;;;14.63;13.15;;;;;;;9.31;71.76;101891.88;5074710;28;20020;-63
2022/06/02 02:19:09;;;;;;;16.08;13.32;;;;;;;9.36;71.72;101890.84;5088629;28;20028;-63
2022/06/02 02:22:02;;;;;;;14.95;13.45;;;;;;;9.38;71.49;101894.28;5087254;28;20064;-63
2022/06/02 02:24:45;;;;;;;16.98;14.90;;;;;;;9.32;71.26;101898.03;5085134;28;20035;-63
2022/06/02 02:27:24;;;;;;;15.30;13.88;;;;;;;9.33;71.32;101897.13;5061762;28;20079;-63
2022/06/02 02:30:12;;;;;;;16.27;14.67;;;;;;;9.28;70.96;101899.97;5080083;28;20027;-64
2022/06/02 02:32:55;;;;;;;14.88;13.38;;;;;;;9.23;71.11;101899.28;5083792;28;20020;-63
2022/06/02 02:35:34;;;;;;;16.08;14.48;;;;;;;9.20;71.24;101902.06;5083164;28;20105;-63
2022/06/02 02:38:43;;;;;;;16.02;14.43;;;;;;;9.25;70.64;101905.41;5083182;28;20031;-63
2022/06/02 02:41:46;;;;;;;15.68;14.02;;;;;;;9.26;70.89;101898.28;5083093;28;20036;-63
2022/06/02 02:44:36;;;;;;;17.40;15.48;;;;;;;9.07;71.50;101893.72;5072896;28;20061;-64
2022/06/02 02:47:14;;;;;;;17.27;15.52;;;;;;;9.10;71.36;101903.38;5079598;28;20115;-64
2022/06/02 02:49:52;;;;;;;16.70;15.00;;;;;;;9.06;71.53;101899.97;5084246;28;20480;-63
2022/06/02 02:52:29;;;;;;;16.67;15.05;;;;;;;9.03;71.26;101909.81;5091961;28;20028;-63
2022/06/02 02:55:01;;;;;;;18.10;15.57;;;;;;;8.99;71.18;101898.47;5072816;28;20034;-63
2022/06/02 02:57:44;;;;;;;16.92;15.23;;;;;;;8.99;71.51;101906.44;5089278;28;20043;-63
2022/06/02 03:00:33;;;;;;;18.60;16.05;;;;;;;8.99;71.49;101910.88;5086137;28;20048;-63
2022/06/02 03:03:22;;;;;;;17.52;15.68;;;;;;;8.97;71.64;101910.06;5088820;28;20024;-63
2022/06/02 03:06:18;;;;;;;16.77;15.15;;;;;;;8.83;71.62;101916.78;5090608;28;20107;-63
2022/06/02 03:08:44;;;;;;;17.30;15.50;;;;;;;8.72;72.01;101916.34;5087882;28;20032;-63
2022/06/02 03:12:00;;;;;;;16.63;14.85;;;;;;;8.78;71.47;101916.09;5085068;28;20427;-63
2022/06/02 03:14:32;;;;;;;17.38;15.32;;;;;;;8.66;72.05;101918.38;5010670;28;20030;-63
2022/06/02 03:17:11;;;;;;;17.05;15.25;;;;;;;8.62;72.15;101913.19;5069266;28;20123;-63
2022/06/02 03:19:49;;;;;;;17.65;15.90;;;;;;;8.62;72.29;101929.09;5087915;28;20481;-63
2022/06/02 03:22:48;;;;;;;16.88;15.18;;;;;;;8.64;71.90;101916.59;5090341;28;20394;-64
2022/06/02 03:25:21;;;;;;;17.95;15.27;;;;;;;8.66;72.28;101932.47;5090038;28;20035;-63
2022/06/02 03:27:55;;;;;;;17.20;15.50;;;;;;;8.64;72.05;101929.00;5072201;28;20012;-63
2022/06/02 03:30:29;;;;;;;16.23;14.63;;;;;;;8.57;72.36;101936.34;5073022;28;20055;-63
2022/06/02 03:33:14;;;;;;;18.35;16.55;;;;;;;8.57;72.37;101940.78;5087896;28;20487;-63
2022/06/02 03:36:00;;;;;;;17.70;15.88;;;;;;;8.53;72.82;101948.00;5088130;28;20063;-63
2022/06/02 03:38:38;;;;;;;19.10;17.15;;;;;;;8.55;73.04;101939.97;5096834;28;20471;-64
2022/06/02 03:41:16;;;;;;;19.95;17.95;;;;;;;8.52;73.24;101950.69;5089480;28;20094;-63
2022/06/02 03:43:47;;;;;;;19.58;17.58;;;;;;;8.46;73.74;101950.91;5088342;28;20050;-63
2022/06/02 03:46:35;;;;;;;19.00;17.15;;;;;;;8.57;73.03;101965.50;5089254;28;20099;-63
2022/06/02 03:49:34;;;;;;;20.63;17.38;;;;;;;8.62;72.99;101955.59;5087860;28;20028;-63
2022/06/02 03:52:37;;;;;;;19.73;17.42;;;;;;;8.55;72.97;101954.09;5088526;28;20020;-63
2022/06/02 03:55:23;;;;;;;18.55;16.63;;;;;;;8.52;72.98;101953.34;5081668;28;20085;-63
2022/06/02 03:58:06;;;;;;;21.35;19.15;;;;;;;8.45;73.31;101954.50;5071473;28;20048;-63
2022/06/02 04:00:49;;;;;;;20.23;18.13;;;;;;;8.48;73.04;101962.34;5106953;28;20057;-63
2022/06/02 04:03:47;;;;;;;20.00;18.00;;;;;;;8.58;72.75;101959.28;5103890;28;20027;-63
2022/06/02 04:06:50;;;;;;;20.70;18.58;;;;;;;8.46;73.35;101951.78;5017389;28;20052;-63
2022/06/02 04:09:44;;;;;;;22.30;17.75;;;;;;;8.60;72.92;101967.19;5074358;28;20028;-63
2022/06/02 04:15:30;;;;;;;27.35;20.67;;;;;;;8.60;73.42;101967.19;5088350;28;20093;-64
2022/06/02 04:18:14;;;;;;;23.63;20.52;;;;;;;8.59;73.67;101981.38;5083355;28;20028;-63
2022/06/02 04:21:00;;;;;;;24.92;21.50;;;;;;;8.57;74.29;101977.91;5092308;28;20028;-64
2022/06/02 04:23:56;;;;;;;25.10;22.50;;;;;;;8.66;74.71;101977.56;5087770;28;20410;-63
2022/06/02 04:26:54;;;;;;;24.55;21.95;;;;;;;8.72;74.56;101981.78;5080503;28;20115;-63
2022/06/02 04:29:52;;;;;;;25.45;22.60;;;;;;;8.66;74.85;101972.25;5086860;28;20028;-63
2022/06/02 04:32:53;;;;;;;24.80;22.13;;;;;;;8.71;75.33;101986.22;5086453;28;20027;-64
2022/06/02 04:35:49;;;;;;;27.75;24.63;;;;;;;8.76;75.33;101983.38;5083215;28;20108;-63
2022/06/02 04:38:27;;;;;;;27.70;23.85;;;;;;;8.72;76.17;101982.63;5067991;28;20475;-64
2022/06/02 04:41:13;;;;;;;28.15;24.45;;;;;;;8.83;76.33;101992.84;5086852;28;20026;-63
2022/06/02 04:44:07;;;;;;;28.25;25.17;;;;;;;8.81;76.71;101984.94;5083253;28;20054;-63
2022/06/02 04:46:40;;;;;;;28.73;25.67;;;;;;;8.89;77.05;101983.81;5086306;28;20097;-63
2022/06/02 04:49:14;;;;;;;29.00;25.92;;;;;;;8.91;77.39;101984.59;5085496;28;20070;-63
2022/06/02 04:51:51;;;;;;;31.65;27.13;;;;;;;9.03;77.33;101987.66;5082370;28;20039;-63
2022/06/02 04:54:47;;;;;;;30.52;26.67;;;;;;;9.14;77.20;101992.53;5082528;28;20032;-63
2022/06/02 04:57:44;;;;;;;29.80;26.70;;;;;;;9.29;76.69;101993.72;5087184;28;20447;-63
2022/06/02 05:00:21;;;;;;;30.17;27.05;;;;;;;9.23;77.28;101978.91;5091950;28;20453;-63
2022/06/02 05:03:18;;;;;;;33.40;29.42;;;;;;;9.38;77.72;101984.53;5087307;28;20024;-63
2022/06/02 05:06:03;;;;;;;34.40;30.83;;;;;;;9.40;77.80;101974.72;5088210;28;20535;-63
2022/06/02 05:09:02;;;;;;;32.83;29.38;;;;;;;9.58;77.56;101991.72;5090670;28;20024;-63
2022/06/02 05:12:01;;;;;;;33.50;29.67;;;;;;;9.61;77.96;101999.56;5093383;28;20040;-63
2022/06/02 05:14:39;;;;;;;35.28;30.52;;;;;;;9.68;78.02;101993.94;5076459;28;20040;-63
2022/06/02 05:17:47;;;;;;;36.10;31.25;;;;;;;9.73;77.84;101999.06;5066605;28;20102;-63
2022/06/02 05:20:12;;;;;;;32.90;29.40;;;;;;;9.76;77.99;101996.28;5083090;28;20047;-63
2022/06/02 05:22:54;;;;;;;34.22;30.52;;;;;;;9.82;78.49;101993.34;5069543;28;20482;-63
2022/06/02 05:25:45;;;;;;;38.65;32.35;;;;;;;9.92;78.21;101996.53;5073761;28;20331;-63
2022/06/02 05:28:17;;;;;;;34.83;31.08;;;;;;;10.02;78.59;101990.72;5072241;28;20437;-63
2022/06/02 05:31:03;;;;;;;35.63;31.42;;;;;;;10.16;78.05;102000.78;5109924;28;20072;-63
2022/06/02 05:33:52;;;;;;;34.33;30.73;;;;;;;10.34;77.45;101995.63;5086167;28;20028;-64
2022/06/02 05:36:26;;;;;;;35.30;31.48;;;;;;;10.41;77.89;101991.78;5078403;28;20435;-64
2022/06/02 05:39:05;;;;;;;34.40;30.70;;;;;;;10.54;77.48;101994.78;5091234;28;20468;-64
2022/06/02 05:41:47;;;;;;;34.50;30.73;;;;;;;10.71;76.88;101997.53;5069750;28;20032;-64
2022/06/02 05:44:31;;;;;;;36.47;32.08;;;;;;;10.78;77.10;101988.34;5066507;28;20032;-63
2022/06/02 05:46:56;;;;;;;36.30;30.50;;;;;;;10.85;77.57;101995.13;5084255;28;20024;-63
2022/06/02 05:50:15;;;;;;;37.25;30.60;;;;;;;10.98;77.26;101999.88;5083859;28;20039;-64
2022/06/02 05:52:49;;;;;;;33.22;29.73;;;;;;;10.99;78.08;101998.94;5000198;28;20033;-63
2022/06/02 05:55:21;;;;;;;36.17;30.52;;;;;;;11.08;78.27;102002.00;5078808;28;20035;-63
2022/06/02 05:57:57;;;;;;;32.95;29.45;;;;;;;11.19;77.55;102012.19;5063093;28;20123;-63
2022/06/02 06:00:25;;;;;;;34.28;30.50;;;;;;;11.34;76.83;102015.91;5083884;28;20400;-63
2022/06/02 06:03:12;;;;;;;30.48;27.20;;;;;;;11.51;76.55;102026.63;5084357;28;20028;-64
2022/06/02 06:05:56;;;;;;;29.38;26.20;;;;;;;11.69;75.61;102024.00;5090331;28;20058;-63
2022/06/02 06:09:01;;;;;;;30.08;26.88;;;;;;;11.86;75.22;102023.22;5090568;28;20016;-63
2022/06/02 06:11:30;;;;;;;29.38;26.23;;;;;;;11.92;75.29;102026.44;5055164;28;20028;-63
2022/06/02 06:14:33;;;;;;;28.80;25.77;;;;;;;12.09;74.63;102032.72;5067347;28;20036;-63
2022/06/02 06:17:36;;;;;;;29.90;26.80;;;;;;;12.16;75.02;102039.50;5036697;28;20510;-64
2022/06/02 06:20:07;;;;;;;27.75;24.83;;;;;;;12.23;74.36;102031.06;5088746;28;20168;-63
2022/06/02 06:23:01;;;;;;;28.98;25.98;;;;;;;12.42;74.23;102041.69;5090448;28;20063;-63
2022/06/02 06:25:41;;;;;;;28.67;25.60;;;;;;;12.50;74.24;102046.63;5055396;28;20043;-63
2022/06/02 06:28:06;;;;;;;;;;;;;;;12.70;73.49;102049.09;5070692;28;20024;-63
2022/06/02 06:30:59;;;;;;;26.75;22.80;;;;;;;12.77;72.92;102047.00;5086450;28;19923;-63
2022/06/02 06:33:53;;;;;;;24.75;22.08;;;;;;;12.86;72.69;102042.97;5088292;28;20019;-63
2022/06/02 06:36:41;;;;;;;19.60;17.55;;;;;;;13.02;71.83;102045.66;5090150;28;20295;-63
2022/06/02 06:39:39;;;;;;;20.87;18.70;;;;;;;13.21;71.19;102056.19;5089543;28;20355;-63
2022/06/02 06:42:05;;;;;;;17.90;16.13;;;;;;;13.26;70.81;102055.03;5086027;28;20055;-64
2022/06/02 06:44:45;;;;;;;17.75;15.95;;;;;;;13.28;70.11;102052.28;5087928;28;20036;-64
2022/06/02 06:47:18;;;;;;;14.07;12.75;;;;;;;13.38;69.09;102067.75;5092559;28;20391;-63
2022/06/02 06:49:53;;;;;;;13.10;11.02;;;;;;;13.47;68.39;102061.03;5089822;28;20016;-63
2022/06/02 06:53:00;;;;;;;13.48;12.07;;;;;;;13.58;68.77;102066.59;5070265;28;20545;-64
2022/06/02 06:55:42;;;;;;;12.73;11.52;;;;;;;13.68;68.14;102063.41;5072512;28;20020;-63
2022/06/02 06:58:31;;;;;;;13.95;12.50;;;;;;;13.73;68.30;102069.38;5060284;28;20028;-63
2022/06/02 07:01:12;;;;;;;15.13;13.53;;;;;;;13.83;67.90;102071.44;5090039;28;20560;-63
2022/06/02 07:03:56;;;;;;;14.20;12.93;;;;;;;13.96;67.62;102070.72;5080794;28;20032;-64
2022/06/02 07:06:31;;;;;;;15.98;14.27;;;;;;;13.85;67.24;102076.69;5073348;28;20499;-64
2022/06/02 07:09:15;;;;;;;15.50;13.90;;;;;;;13.76;68.03;102080.75;5091744;28;20089;-64
2022/06/02 07:14:58;;;;;;;15.48;13.25;;;;;;;13.93;67.91;102076.25;5089311;28;20093;-63
2022/06/02 07:17:36;;;;;;;14.82;13.30;;;;;;;13.88;67.78;102076.50;5088588;28;20039;-64
2022/06/02 07:20:18;;;;;;;15.23;13.73;;;;;;;13.78;67.36;102084.22;5068930;28;20039;-64
2022/06/02 07:22:58;;;;;;;14.98;13.40;;;;;;;13.81;67.95;102083.19;5087979;28;20371;-63
2022/06/02 07:25:29;;;;;;;13.68;12.38;;;;;;;13.77;67.57;102087.84;5073399;28;20035;-64
2022/06/02 07:27:55;;;;;;;14.05;12.60;;;;;;;13.88;67.27;102089.03;5089440;28;20015;-64
2022/06/02 07:30:23;;;;;;;8.70;7.80;;;;;;;14.07;64.30;102089.72;5089338;28;20023;-64
2022/06/02 07:33:14;;;;;;;9.13;8.20;;;;;;;14.19;63.74;102096.16;5093909;28;20027;-64
2022/06/02 07:36:11;;;;;;;10.95;8.90;;;;;;;14.50;64.72;102100.56;5044240;28;20127;-64
2022/06/02 07:39:10;;;;;;;7.78;5.03;;;;;;;14.77;61.96;102098.09;5080979;28;20059;-64
2022/06/02 07:42:06;;;;;;;6.43;5.72;;;;;;;14.91;62.30;102103.47;5091434;28;20032;-64
2022/06/02 07:44:56;;;;;;;9.60;8.50;;;;;;;14.82;62.06;102095.97;5072556;28;20097;-64
2022/06/02 07:47:23;;;;;;;12.82;10.00;;;;;;;15.08;61.76;102099.72;5089325;28;20111;-64
2022/06/02 07:49:54;;;;;;;10.40;9.30;;;;;;;15.34;61.08;102094.56;5090299;28;20047;-65
2022/06/02 07:52:41;;;;;;;9.10;8.20;;;;;;;15.62;60.44;102091.84;5056284;28;20034;-64
2022/06/02 07:55:26;;;;;;;8.05;7.35;;;;;;;15.87;58.37;102092.97;5091371;28;20108;-64
2022/06/02 07:58:09;;;;;;;9.38;6.60;;;;;;;16.12;58.47;102086.84;5070775;28;20487;-64
2022/06/02 08:01:04;;;;;;;8.32;7.53;;;;;;;16.34;58.70;102086.25;5071496;28;20032;-64
2022/06/02 08:03:55;;;;;;;6.57;5.88;;;;;;;16.39;55.56;102092.19;5077241;28;20036;-64
2022/06/02 08:06:50;;;;;;;6.50;5.90;;;;;;;16.31;56.20;102091.84;5081054;28;20024;-64
2022/06/02 08:09:39;;;;;;;9.00;7.38;;;;;;;16.01;56.66;102089.38;5071515;28;20021;-64
2022/06/02 08:12:31;;;;;;;;;;;;;;;16.23;57.82;102096.84;5058908;28;20073;-64
2022/06/02 08:15:26;;;;;;;7.30;6.60;;;;;;;16.27;57.06;102090.34;5086793;28;19912;-64
2022/06/02 08:18:08;;;;;;;11.13;8.85;;;;;;;16.22;58.01;102092.44;5087417;28;20048;-64
2022/06/02 08:20:48;;;;;;;10.88;9.77;;;;;;;15.93;58.53;102086.34;5083379;28;20398;-65
2022/06/02 08:23:23;;;;;;;10.02;9.02;;;;;;;15.64;59.17;102078.31;5090677;28;20024;-64
2022/06/02 08:26:03;;;;;;;10.93;9.02;;;;;;;15.59;59.05;102091.19;5073096;28;20058;-64
2022/06/02 08:28:40;;;;;;;9.68;8.68;;;;;;;15.70;59.28;102090.50;5061562;28;20066;-64
2022/06/02 08:31:12;;;;;;;9.55;8.48;;;;;;;15.75;58.00;102085.72;5092994;28;20372;-64
2022/06/02 08:33:40;;;;;;;9.13;8.32;;;;;;;15.59;59.24;102089.38;5091664;28;20063;-64
2022/06/02 08:36:16;;;;;;;10.40;9.43;;;;;;;15.81;58.58;102093.38;5056870;28;20032;-64
2022/06/02 08:38:55;;;;;;;10.18;9.05;;;;;;;16.13;59.02;102099.28;5092832;28;20108;-64
2022/06/02 08:41:50;;;;;;;12.63;11.40;;;;;;;16.42;58.77;102105.41;5095081;28;20035;-64
2022/06/02 08:44:33;;;;;;;10.85;9.70;;;;;;;16.64;56.62;102109.31;5094680;28;20032;-64
2022/06/02 08:47:29;;;;;;;8.60;7.72;;;;;;;16.73;55.08;102116.72;5095434;28;20507;-65
2022/06/02 08:50:15;;;;;;;8.35;7.55;;;;;;;16.66;54.53;102115.44;5076157;28;20519;-64
2022/06/02 08:53:18;;;;;;;8.15;7.22;;;;;;;16.52;55.03;102117.22;5066642;28;20032;-64
2022/06/02 08:56:06;;;;;;;10.07;8.55;;;;;;;16.28;55.52;102105.47;5091929;28;20490;-64
2022/06/02 08:58:43;;;;;;;8.93;8.02;;;;;;;16.16;55.71;102115.19;5093726;28;20174;-65
2022/06/02 09:01:27;;;;;;;9.38;8.48;;;;;;;16.14;55.50;102114.44;5069709;28;20024;-64
2022/06/02 09:04:30;;;;;;;8.68;7.38;;;;;;;16.01;55.56;102106.34;5093216;28;20084;-64
2022/06/02 09:07:17;;;;;;;8.52;7.72;;;;;;;15.91;56.40;102105.19;5089949;28;20115;-64
2022/06/02 09:10:03;;;;;;;8.35;7.63;;;;;;;15.93;55.72;102099.75;5073827;28;20503;-64
2022/06/02 09:12:37;;;;;;;10.65;8.82;;;;;;;15.98;56.20;102103.84;5089627;28;20039;-65
2022/06/02 09:15:02;;;;;;;8.82;7.93;;;;;;;15.97;57.12;102106.63;5067782;28;20024;-64
2022/06/02 09:17:40;;;;;;;11.32;7.18;;;;;;;16.02;55.55;102109.88;5085879;28;20402;-64
2022/06/02 09:20:12;;;;;;;7.28;6.57;;;;;;;16.37;56.21;102104.00;5092351;28;20047;-64
2022/06/02 09:23:06;;;;;;;7.47;5.95;;;;;;;16.70;53.70;102108.88;5078930;28;20398;-64
2022/06/02 09:25:46;;;;;;;8.18;7.35;;;;;;;16.95;53.43;102113.47;5082555;28;20111;-64
2022/06/02 09:28:26;;;;;;;6.80;6.20;;;;;;;17.33;52.74;102112.59;5070411;28;20460;-64
2022/06/02 09:31:01;;;;;;;8.02;6.60;;;;;;;17.52;50.80;102109.41;5103539;28;20058;-64
2022/06/02 09:34:01;;;;;;;9.07;6.75;;;;;;;17.74;51.76;102100.66;5099382;28;20029;-65
2022/06/02 09:36:35;;;;;;;7.47;6.78;;;;;;;17.80;51.05;102101.09;5068035;28;20032;-64
2022/06/02 09:39:15;;;;;;;7.22;6.53;;;;;;;18.01;49.92;102103.19;5093500;28;20039;-65
2022/06/02 09:41:56;;;;;;;6.05;5.50;;;;;;;18.17;49.96;102101.03;5089553;28;20599;-64
2022/06/02 09:44:27;;;;;;;7.88;7.00;;;;;;;17.94;49.12;102094.66;5088183;28;20101;-65
2022/06/02 09:47:11;;;;;;;8.07;7.35;;;;;;;18.00;49.01;102099.63;5063310;28;20032;-64
2022/06/02 09:49:55;;;;;;;7.50;6.80;;;;;;;18.39;49.99;102093.06;5087098;28;20036;-65
2022/06/02 09:53:01;;;;;;;8.40;7.68;;;;;;;18.75;49.48;102093.06;5068976;28;20035;-65
2022/06/02 09:55:28;;;;;;;8.05;7.32;;;;;;;18.78;45.05;102099.06;5060504;28;20538;-65
2022/06/02 09:58:18;;;;;;;7.38;6.78;;;;;;;19.01;47.48;102096.41;5068341;28;20363;-64
2022/06/02 10:00:56;;;;;;;8.15;6.63;;;;;;;19.19;46.23;102100.34;5091382;28;20387;-64
2022/06/02 10:04:10;;;;;;;6.40;5.10;;;;;;;19.31;44.93;102097.66;5092227;28;20383;-65
2022/06/02 10:07:03;;;;;;;7.28;6.68;;;;;;;19.40;45.62;102105.00;5074168;28;20093;-65
2022/06/02 10:10:04;;;;;;;7.22;6.53;;;;;;;19.61;46.39;102099.72;5103329;27;20497;-65
2022/06/02 10:12:54;;;;;;;7.68;7.03;;;;;;;19.44;46.13;102093.84;5085341;28;20540;-65
2022/06/02 10:15:20;;;;;;;7.63;6.82;;;;;;;19.60;45.29;102090.75;5100670;28;20032;-65
2022/06/02 10:17:56;;;;;;;7.55;5.60;;;;;;;19.76;44.53;102089.53;5089251;28;20073;-65
2022/06/02 10:21:04;;;;;;;6.93;6.22;;;;;;;19.81;43.01;102087.31;5089538;28;20467;-65
2022/06/02 10:23:44;;;;;;;6.97;5.88;;;;;;;20.16;43.51;102087.94;5006898;28;20476;-65
2022/06/02 10:26:40;;;;;;;5.88;5.22;;;;;;;20.34;42.84;102093.63;4993541;28;20037;-65
2022/06/02 10:29:37;;;;;;;7.25;6.63;;;;;;;20.56;43.04;102086.41;5066301;28;20044;-65
2022/06/02 10:32:28;;;;;;;7.75;7.05;;;;;;;20.80;44.25;102092.44;5080803;28;20043;-65
2022/06/02 10:35:30;;;;;;;7.78;7.07;;;;;;;20.76;42.85;102090.97;5059227;28;20027;-66
2022/06/02 10:38:05;;;;;;;7.95;7.15;;;;;;;20.81;41.54;102083.31;5088115;28;20115;-66
2022/06/02 10:40:48;;;;;;;7.40;6.53;;;;;;;21.00;42.65;102089.81;5072187;28;20023;-65
2022/06/02 10:43:42;;;;;;;6.03;5.40;;;;;;;21.24;41.97;102084.13;5079159;28;20042;-65
2022/06/02 10:46:33;;;;;;;6.25;5.68;;;;;;;21.21;40.35;102079.81;5072100;28;20024;-65
2022/06/02 10:49:03;;;;;;;6.28;5.65;;;;;;;20.95;39.29;102089.38;5087772;28;20024;-65
2022/06/02 10:51:37;;;;;;;6.75;6.10;;;;;;;20.87;40.46;102082.78;5057333;28;20032;-66
2022/06/02 10:54:08;;;;;;;5.50;5.00;;;;;;;20.79;39.90;102079.88;5079402;28;20032;-66
2022/06/02 10:56:52;;;;;;;7.45;6.00;;;;;;;20.49;40.05;102086.06;5069962;28;20512;-66
2022/06/02 10:59:55;;;;;;;16.48;7.35;;;;;;;20.44;42.01;102074.78;5075923;28;20044;-66
2022/06/02 11:02:49;;;;;;;6.25;5.65;;;;;;;20.36;42.10;102071.88;5068886;28;20024;-64
2022/06/02 11:05:38;;;;;;;7.72;5.45;;;;;;;20.34;41.10;102069.31;5086266;28;20028;-64
2022/06/02 11:08:25;;;;;;;6.70;6.10;;;;;;;20.81;41.92;102067.09;5085504;28;20032;-64
2022/06/02 11:11:08;;;;;;;5.60;4.47;;;;;;;21.03;40.51;102076.91;5089187;28;20038;-61
2022/06/02 11:14:11;;;;;;;4.68;3.80;;;;;;;21.09;39.48;102068.25;5076524;28;20532;-62
2022/06/02 11:16:47;;;;;;;6.82;5.35;;;;;;;21.06;40.50;102067.63;5088281;28;20364;-61
2022/06/02 11:19:26;;;;;;;7.53;5.93;;;;;;;20.83;39.77;102069.66;5087542;28;20080;-61
2022/06/02 11:22:15;;;;;;;7.78;7.03;;;;;;;21.18;41.02;102061.16;5089000;28;20212;-62
2022/06/02 11:24:51;;;;;;;6.60;6.00;;;;;;;21.29;40.11;102061.03;5088562;28;20032;-63
2022/06/02 11:27:35;;;;;;;6.30;5.70;;;;;;;21.17;41.21;102056.72;5085436;28;20020;-61
2022/06/02 11:30:19;;;;;;;4.07;3.78;;;;;;;21.15;37.45;102063.25;5089373;28;20028;-61
2022/06/02 11:32:50;;;;;;;13.80;4.00;;;;;;;21.04;36.48;102059.66;5090937;28;20115;-61
2022/06/02 11:35:42;;;;;;;4.60;4.20;;;;;;;20.73;36.95;102052.53;5071441;28;20049;-61
2022/06/02 11:38:44;;;;;;;4.88;3.60;;;;;;;21.05;37.62;102057.81;5089598;28;20067;-60
2022/06/02 11:41:34;;;;;;;4.40;3.88;;;;;;;21.35;37.54;102048.81;5088536;28;20119;-63
2022/06/02 11:44:26;;;;;;;3.90;3.60;;;;;;;21.46;36.78;102054.16;5090597;28;20081;-63
2022/06/02 11:47:00;;;;;;;4.07;3.53;;;;;;;21.38;35.35;102043.16;5090153;28;20016;-62
2022/06/02 11:50:03;;;;;;;4.00;3.58;;;;;;;21.89;36.66;102039.41;5088570;28;20043;-62
2022/06/02 11:52:54;;;;;;;4.65;4.25;;;;;;;22.19;36.59;101999.63;5089522;28;20036;-62
2022/06/02 11:55:50;;;;;;;5.35;4.50;;;;;;;22.62;36.28;102028.09;5085906;28;20081;-62
2022/06/02 11:58:39;;;;;;;4.82;4.38;;;;;;;22.90;36.02;102020.84;5083370;28;20417;-62
2022/06/02 12:01:24;;;;;;;8.07;4.57;;;;;;;23.20;35.10;102025.19;5082863;28;20016;-62
2022/06/02 12:04:26;;;;;;;6.47;4.97;;;;;;;23.27;35.51;102020.88;5083967;28;20028;-62
2022/06/02 12:07:26;;;;;;;6.95;4.35;;;;;;;23.12;36.40;102016.97;5089163;28;20024;-62
2022/06/02 12:10:07;;;;;;;5.53;4.68;;;;;;;23.49;34.80;102014.16;5089001;28;20067;-62
2022/06/02 12:13:09;;;;;;;5.32;4.82;;;;;;;24.27;33.66;102010.84;5088634;28;20035;-62
2022/06/02 12:15:57;;;;;;;4.88;4.30;;;;;;;25.19;35.22;102014.84;5082462;28;20111;-62
2022/06/02 12:18:36;;;;;;;4.63;4.23;;;;;;;25.64;29.86;102004.56;5077329;28;20029;-63
2022/06/02 12:21:37;;;;;;;5.65;3.90;;;;;;;26.28;30.89;101998.31;5087474;28;20047;-62
2022/06/02 12:24:40;;;;;;;3.92;3.63;;;;;;;26.63;29.81;101998.13;5070920;28;20123;-63
2022/06/02 12:27:22;;;;;;;4.28;3.83;;;;;;;25.27;30.06;101998.53;5086714;28;20461;-62
2022/06/02 12:30:16;;;;;;;6.13;3.22;;;;;;;25.07;30.51;101991.63;5086910;28;20024;-62
2022/06/02 12:33:02;;;;;;;3.13;2.83;;;;;;;26.42;28.00;101993.19;5089890;28;20020;-62
2022/06/02 12:35:50;;;;;;;3.03;2.72;;;;;;;27.70;27.73;101982.94;5087545;28;20107;-62
2022/06/02 12:39:06;;;;;;;5.47;2.92;;;;;;;29.03;26.65;101996.06;5071289;28;20028;-63
2022/06/02 12:42:02;;;;;;;5.97;4.30;;;;;;;29.33;25.57;101985.91;5055087;28;20059;-62
2022/06/02 12:45:00;;;;;;;4.07;3.67;;;;;;;29.63;27.17;101985.84;5090522;28;20047;-62
2022/06/02 12:47:39;;;;;;;4.88;4.45;;;;;;;29.39;25.41;101976.06;5089020;28;20016;-62
2022/06/02 12:50:25;;;;;;;4.75;4.25;;;;;;;28.87;25.66;101960.66;5078936;28;20028;-62
2022/06/02 12:53:30;;;;;;;4.30;3.80;;;;;;;27.63;26.79;101960.97;5078656;28;20057;-62